createdAt,value
2018-04-14T00:00:52.136Z,98626.52
2018-04-14T00:03:19.693Z,98624.48
2018-04-14T00:05:47.219Z,98621.78
2018-04-14T00:08:14.688Z,98617.40
2018-04-14T00:10:42.179Z,98616.13
2018-04-14T00:13:09.644Z,98622.27
2018-04-14T00:15:37.239Z,98621.84
2018-04-14T00:18:04.704Z,98626.71
2018-04-14T00:20:32.171Z,98627.49
2018-04-14T00:22:59.654Z,98627.66
2018-04-14T00:25:27.132Z,98632.56
2018-04-14T00:27:54.620Z,98630.28
2018-04-14T00:30:22.079Z,98640.70
2018-04-14T00:32:49.555Z,98644.19
2018-04-14T00:35:17.014Z,98646.84
2018-04-14T00:37:44.500Z,98646.96
2018-04-14T00:40:11.984Z,98645.37
2018-04-14T00:42:39.491Z,98653.47
2018-04-14T00:45:06.950Z,98655.42
2018-04-14T00:47:34.484Z,98655.53
2018-04-14T00:50:01.938Z,98650.53
2018-04-14T00:52:29.455Z,98650.63
2018-04-14T00:54:56.937Z,98636.30
2018-04-14T00:57:24.419Z,98647.76
2018-04-14T00:59:51.880Z,98641.39
2018-04-14T01:02:19.383Z,98641.67
2018-04-14T01:04:47.791Z,98644.33
2018-04-14T01:07:15.276Z,98645.30
2018-04-14T01:09:42.756Z,98648.47
2018-04-14T01:12:10.243Z,98654.52
2018-04-14T01:14:37.743Z,98652.10
2018-04-14T01:17:05.280Z,98644.91
2018-04-14T01:19:32.707Z,98656.97
2018-04-14T01:22:00.179Z,98651.65
2018-04-14T01:24:27.668Z,98648.99
2018-04-14T01:26:55.156Z,98653.04
2018-04-14T01:29:22.643Z,98651.08
2018-04-14T01:31:50.098Z,98654.22
2018-04-14T01:34:17.619Z,98666.19
2018-04-14T01:36:45.083Z,98668.91
2018-04-14T01:39:13.540Z,98665.04
2018-04-14T01:41:41.003Z,98666.28
2018-04-14T01:44:08.488Z,98671.56
2018-04-14T01:46:35.949Z,98669.88
2018-04-14T01:49:03.436Z,98671.98
2018-04-14T01:51:30.898Z,98675.45
2018-04-14T01:53:58.383Z,98678.11
2018-04-14T01:56:25.843Z,98679.52
2018-04-14T01:58:53.328Z,98683.34
2018-04-14T02:01:20.783Z,98681.23
2018-04-14T02:03:48.331Z,98682.98
2018-04-14T02:06:15.883Z,98683.53
2018-04-14T02:08:43.465Z,98679.29
2018-04-14T02:11:10.926Z,98680.73
2018-04-14T02:13:38.421Z,98679.67
2018-04-14T02:16:05.887Z,98673.80
2018-04-14T02:18:33.382Z,98675.03
2018-04-14T02:21:00.855Z,98673.72
2018-04-14T02:23:28.428Z,98671.65
2018-04-14T02:25:55.983Z,98676.91
2018-04-14T02:28:23.522Z,98676.23
2018-04-14T02:30:50.987Z,98682.80
2018-04-14T02:33:18.487Z,98678.31
2018-04-14T02:35:45.954Z,98677.77
2018-04-14T02:38:13.432Z,98683.31
2018-04-14T02:40:40.907Z,98687.14
2018-04-14T02:43:08.371Z,98689.95
2018-04-14T02:45:35.898Z,98691.48
2018-04-14T02:48:03.368Z,98695.35
2018-04-14T02:50:30.853Z,98696.81
2018-04-14T02:52:58.319Z,98698.91
2018-04-14T02:55:25.854Z,98689.81
2018-04-14T02:57:53.315Z,98686.89
2018-04-14T03:00:20.879Z,98688.29
2018-04-14T03:02:48.341Z,98687.08
2018-04-14T03:05:15.898Z,98679.11
2018-04-14T03:07:43.368Z,98679.12
2018-04-14T03:10:10.848Z,98682.68
2018-04-14T03:12:38.310Z,98675.76
2018-04-14T03:15:05.795Z,98677.38
2018-04-14T03:17:33.261Z,98680.08
2018-04-14T03:20:00.763Z,98683.59
2018-04-14T03:22:28.232Z,98685.70
2018-04-14T03:24:55.992Z,98688.13
2018-04-14T03:27:23.528Z,98690.05
2018-04-14T03:29:51.012Z,98696.54
2018-04-14T03:32:18.556Z,98697.45
2018-04-14T03:34:46.099Z,98695.06
2018-04-14T03:37:13.555Z,98700.89
2018-04-14T03:39:41.035Z,98702.42
2018-04-14T03:42:08.503Z,98706.20
2018-04-14T03:44:36.022Z,98710.47
2018-04-14T03:47:03.483Z,98711.07
2018-04-14T03:49:30.948Z,98714.49
2018-04-14T03:51:58.440Z,98711.01
2018-04-14T03:54:25.899Z,98723.48
2018-04-14T03:56:53.407Z,98721.98
2018-04-14T03:59:20.867Z,98719.35
2018-04-14T04:01:48.356Z,98721.24
2018-04-14T04:04:15.823Z,98727.80
2018-04-14T04:06:43.303Z,98729.55
2018-04-14T04:09:10.813Z,98731.50
2018-04-14T04:11:38.471Z,98726.95
2018-04-14T04:14:05.939Z,98727.51
2018-04-14T04:16:33.429Z,98728.63
2018-04-14T04:19:12.619Z,98734.77
2018-04-14T04:21:51.993Z,98731.34
2018-04-14T04:24:31.303Z,98734.50
2018-04-14T04:26:58.788Z,98737.38
2018-04-14T04:29:26.248Z,98734.76
2018-04-14T04:31:53.740Z,98737.28
2018-04-14T04:34:21.209Z,98742.09
2018-04-14T04:36:48.703Z,98739.28
2018-04-14T04:39:16.172Z,98740.72
2018-04-14T04:41:43.694Z,98742.44
2018-04-14T04:44:11.172Z,98746.77
2018-04-14T04:46:38.740Z,98748.38
2018-04-14T04:49:06.243Z,98744.73
2018-04-14T04:51:33.758Z,98741.05
2018-04-14T04:54:01.231Z,98755.62
2018-04-14T04:56:28.727Z,98757.22
2018-04-14T04:58:56.228Z,98765.02
2018-04-14T05:01:23.778Z,98768.28
2018-04-14T05:03:51.251Z,98766.09
2018-04-14T05:06:18.780Z,98769.61
2018-04-14T05:08:46.244Z,98775.89
2018-04-14T05:11:13.736Z,98781.19
2018-04-14T05:13:41.199Z,98780.16
2018-04-14T05:16:08.690Z,98779.20
2018-04-14T05:18:36.147Z,98785.71
2018-04-14T05:21:03.623Z,98787.94
2018-04-14T05:23:31.110Z,98791.86
2018-04-14T05:25:58.571Z,98790.14
2018-04-14T05:28:26.055Z,98796.09
2018-04-14T05:30:53.548Z,98796.76
2018-04-14T05:33:21.047Z,98802.14
2018-04-14T05:35:48.547Z,98808.47
2018-04-14T05:38:16.032Z,98808.38
2018-04-14T05:40:43.495Z,98820.09
2018-04-14T05:43:10.980Z,98823.47
2018-04-14T05:45:38.434Z,98828.18
2018-04-14T05:48:05.924Z,98833.68
2018-04-14T05:50:33.427Z,98830.00
2018-04-14T05:53:01.048Z,98832.25
2018-04-14T05:55:28.519Z,98841.22
2018-04-14T05:57:56.015Z,98839.23
2018-04-14T06:00:23.491Z,98841.01
2018-04-14T06:02:50.975Z,98842.46
2018-04-14T06:05:18.495Z,98840.63
2018-04-14T06:07:45.978Z,98842.98
2018-04-14T06:10:13.444Z,98839.89
2018-04-14T06:12:40.955Z,98838.17
2018-04-14T06:15:08.516Z,98840.52
2018-04-14T06:17:36.010Z,98831.84
2018-04-14T06:20:03.478Z,98832.38
2018-04-14T06:22:30.959Z,98834.70
2018-04-14T06:24:58.447Z,98831.28
2018-04-14T06:27:25.916Z,98835.26
2018-04-14T06:29:53.422Z,98836.55
2018-04-14T06:32:21.828Z,98833.84
2018-04-14T06:34:49.331Z,98842.90
2018-04-14T06:37:16.862Z,98835.32
2018-04-14T06:39:44.424Z,98838.18
2018-04-14T06:42:11.904Z,98838.62
2018-04-14T06:44:39.423Z,98840.66
2018-04-14T06:47:06.923Z,98847.77
2018-04-14T06:49:34.455Z,98843.09
2018-04-14T06:52:01.922Z,98844.70
2018-04-14T06:54:29.428Z,98845.28
2018-04-14T06:56:56.949Z,98853.52
2018-04-14T06:59:24.451Z,98853.77
2018-04-14T07:01:51.923Z,98859.67
2018-04-14T07:04:19.490Z,98855.55
2018-04-14T07:06:46.947Z,98853.94
2018-04-14T07:09:14.448Z,98854.67
2018-04-14T07:11:42.917Z,98852.93
2018-04-14T07:14:10.500Z,98853.98
2018-04-14T07:16:37.991Z,98859.61
2018-04-14T07:19:05.510Z,98861.84
2018-04-14T07:21:33.119Z,98857.87
2018-04-14T07:24:00.606Z,98860.69
2018-04-14T07:26:28.092Z,98870.86
2018-04-14T07:28:55.591Z,98870.52
2018-04-14T07:31:23.076Z,98874.55
2018-04-14T07:33:50.638Z,98879.03
2018-04-14T07:36:18.136Z,98883.35
2018-04-14T07:38:45.619Z,98889.80
2018-04-14T07:41:13.107Z,98883.23
2018-04-14T07:43:40.579Z,98886.19
2018-04-14T07:46:08.068Z,98890.30
2018-04-14T07:48:35.588Z,98894.44
2018-04-14T07:51:03.079Z,98896.27
2018-04-14T07:53:30.563Z,98893.33
2018-04-14T07:55:58.075Z,98895.34
2018-04-14T07:58:25.547Z,98886.63
2018-04-14T08:00:53.052Z,98884.50
2018-04-14T08:03:20.531Z,98883.70
2018-04-14T08:05:48.019Z,98879.72
2018-04-14T08:08:15.492Z,98877.59
2018-04-14T08:10:43.012Z,98879.77
2018-04-14T08:13:10.587Z,98872.19
2018-04-14T08:15:38.088Z,98875.36
2018-04-14T08:18:05.562Z,98871.13
2018-04-14T08:20:33.149Z,98869.02
2018-04-14T08:23:00.663Z,98866.50
2018-04-14T08:25:28.158Z,98861.05
2018-04-14T08:27:55.623Z,98871.41
2018-04-14T08:30:23.115Z,98872.40
2018-04-14T08:32:50.587Z,98871.11
2018-04-14T08:35:18.110Z,98872.09
2018-04-14T08:37:45.596Z,98875.11
2018-04-14T08:40:13.090Z,98873.66
2018-04-14T08:42:40.575Z,98863.78
2018-04-14T08:45:08.087Z,98867.09
2018-04-14T08:47:35.572Z,98861.20
2018-04-14T08:50:03.049Z,98858.48
2018-04-14T08:52:30.563Z,98857.14
2018-04-14T08:54:58.188Z,98860.30
2018-04-14T08:57:25.728Z,98857.39
2018-04-14T08:59:53.321Z,98856.23
2018-04-14T09:02:20.820Z,98855.56
2018-04-14T09:04:48.302Z,98846.37
2018-04-14T09:07:15.795Z,98850.98
2018-04-14T09:09:43.287Z,98844.16
2018-04-14T09:12:10.847Z,98836.61
2018-04-14T09:14:38.324Z,98841.48
2018-04-14T09:17:05.811Z,98837.41
2018-04-14T09:19:33.357Z,98842.18
2018-04-14T09:22:00.847Z,98838.05
2018-04-14T09:24:28.315Z,98836.27
2018-04-14T09:26:55.998Z,98837.00
2018-04-14T09:29:23.527Z,98827.70
2018-04-14T09:31:51.046Z,98831.80
2018-04-14T09:34:18.511Z,98831.03
2018-04-14T09:36:46.004Z,98834.27
2018-04-14T09:39:13.475Z,98836.18
2018-04-14T09:41:40.971Z,98837.55
2018-04-14T09:44:08.436Z,98834.66
2018-04-14T09:46:35.932Z,98828.65
2018-04-14T09:49:03.486Z,98832.19
2018-04-14T09:51:30.987Z,98826.76
2018-04-14T09:53:58.468Z,98828.55
2018-04-14T09:56:25.994Z,98830.20
2018-04-14T09:58:53.584Z,98826.55
2018-04-14T10:01:26.768Z,98821.90
2018-04-14T10:03:54.254Z,98828.87
2018-04-14T10:06:21.726Z,98825.92
2018-04-14T10:08:50.126Z,98827.27
2018-04-14T10:11:17.663Z,98825.74
2018-04-14T10:13:45.151Z,98825.48
2018-04-14T10:16:12.675Z,98826.52
2018-04-14T10:18:40.135Z,98821.27
2018-04-14T10:21:07.613Z,98817.41
2018-04-14T10:23:35.165Z,98818.61
2018-04-14T10:26:02.635Z,98816.23
2018-04-14T10:28:30.137Z,98813.41
2018-04-14T10:30:58.628Z,98807.23
2018-04-14T10:33:26.148Z,98806.77
2018-04-14T10:35:53.652Z,98803.74
2018-04-14T10:38:21.152Z,98808.98
2018-04-14T10:40:48.620Z,98805.00
2018-04-14T10:43:16.127Z,98798.68
2018-04-14T10:45:43.599Z,98799.48
2018-04-14T10:48:11.096Z,98797.80
2018-04-14T10:50:38.624Z,98802.84
2018-04-14T10:53:06.143Z,98802.32
2018-04-14T10:55:33.614Z,98798.84
2018-04-14T10:58:01.107Z,98796.95
2018-04-14T11:00:28.583Z,98794.87
2018-04-14T11:02:56.136Z,98792.43
2018-04-14T11:05:23.634Z,98791.38
2018-04-14T11:07:51.127Z,98785.42
2018-04-14T11:10:18.595Z,98794.17
2018-04-14T11:12:46.093Z,98789.11
2018-04-14T11:15:13.598Z,98792.98
2018-04-14T11:17:41.111Z,98797.28
2018-04-14T11:20:08.591Z,98794.58
2018-04-14T11:22:36.065Z,98786.63
2018-04-14T11:25:03.555Z,98791.20
2018-04-14T11:27:32.663Z,98790.68
2018-04-14T11:30:00.183Z,98798.70
2018-04-14T11:32:27.899Z,98795.61
2018-04-14T11:34:55.395Z,98791.69
2018-04-14T11:37:22.915Z,98794.54
2018-04-14T11:39:50.471Z,98794.80
2018-04-14T11:42:17.968Z,98790.62
2018-04-14T11:44:45.467Z,98787.56
2018-04-14T11:47:12.936Z,98784.82
2018-04-14T11:49:40.462Z,98784.53
2018-04-14T11:52:07.944Z,98782.80
2018-04-14T11:54:35.430Z,98786.17
2018-04-14T11:57:02.901Z,98780.06
2018-04-14T11:59:30.394Z,98771.40
2018-04-14T12:01:57.863Z,98765.70
2018-04-14T12:04:25.358Z,98766.02
2018-04-14T12:06:52.863Z,98781.59
2018-04-14T12:11:49.575Z,98781.90
2018-04-14T12:14:17.088Z,98779.58
2018-04-14T12:16:44.574Z,98772.80
2018-04-14T12:19:12.144Z,98757.13
2018-04-14T12:21:39.739Z,98754.29
2018-04-14T12:24:07.243Z,98749.95
2018-04-14T12:26:35.153Z,98740.20
2018-04-14T12:29:02.997Z,98734.44
2018-04-14T12:31:30.509Z,98722.98
2018-04-14T12:33:58.004Z,98722.30
2018-04-14T12:36:26.441Z,98713.96
2018-04-14T12:38:53.937Z,98721.67
2018-04-14T12:41:21.432Z,98719.87
2018-04-14T12:43:49.135Z,98719.37
2018-04-14T12:46:16.636Z,98714.42
2018-04-14T12:48:44.111Z,98711.02
2018-04-14T12:51:11.631Z,98706.31
2018-04-14T12:53:39.214Z,98695.97
2018-04-14T12:56:06.705Z,98702.16
2018-04-14T12:58:35.197Z,98704.42
2018-04-14T13:01:02.719Z,98706.53
2018-04-14T13:03:30.203Z,98705.06
2018-04-14T13:05:57.705Z,98696.17
2018-04-14T13:08:25.183Z,98697.33
2018-04-14T13:10:52.805Z,98683.17
2018-04-14T13:13:20.307Z,98679.05
2018-04-14T13:15:47.866Z,98679.59
2018-04-14T13:18:15.335Z,98676.92
2018-04-14T13:20:42.851Z,98678.23
2018-04-14T13:23:10.348Z,98675.30
2018-04-14T13:25:39.707Z,98668.30
2018-04-14T13:28:07.278Z,98676.88
2018-04-14T13:30:34.786Z,98682.07
2018-04-14T13:33:02.271Z,98670.33
2018-04-14T13:35:29.815Z,98666.03
2018-04-14T13:37:57.320Z,98672.84
2018-04-14T13:40:24.811Z,98658.92
2018-04-14T13:42:52.315Z,98657.42
2018-04-14T13:45:19.809Z,98664.44
2018-04-14T13:47:47.339Z,98649.03
2018-04-14T13:50:14.818Z,98643.08
2018-04-14T13:52:42.307Z,98640.85
2018-04-14T13:55:09.781Z,98624.79
2018-04-14T13:57:37.273Z,98621.31
2018-04-14T14:00:04.766Z,98620.87
2018-04-14T14:02:32.280Z,98619.73
2018-04-14T14:04:59.819Z,98616.36
2018-04-14T14:07:27.319Z,98612.59
2018-04-14T14:09:54.824Z,98615.42
2018-04-14T14:12:22.330Z,98611.16
2018-04-14T14:14:49.820Z,98605.52
2018-04-14T14:17:17.327Z,98605.12
2018-04-14T14:19:44.807Z,98613.09
2018-04-14T14:22:12.307Z,98606.34
2018-04-14T14:24:39.789Z,98611.16
2018-04-14T14:27:07.299Z,98609.11
2018-04-14T14:29:34.794Z,98604.77
2018-04-14T14:32:02.287Z,98598.58
2018-04-14T14:34:29.764Z,98600.24
2018-04-14T14:36:57.277Z,98600.80
2018-04-14T14:39:24.747Z,98607.66
2018-04-14T14:41:52.240Z,98600.52
2018-04-14T14:44:19.728Z,98598.72
2018-04-14T14:46:47.212Z,98592.38
2018-04-14T14:49:14.712Z,98590.98
2018-04-14T14:51:42.179Z,98592.70
2018-04-14T14:54:09.675Z,98586.10
2018-04-14T14:56:37.167Z,98590.23
2018-04-14T14:59:04.710Z,98587.31
2018-04-14T15:01:32.164Z,98591.00
2018-04-14T15:03:59.832Z,98593.78
2018-04-14T15:06:27.303Z,98591.25
2018-04-14T15:08:54.800Z,98588.05
2018-04-14T15:11:22.271Z,98586.95
2018-04-14T15:13:49.762Z,98585.38
2018-04-14T15:16:17.249Z,98581.45
2018-04-14T15:18:44.777Z,98589.05
2018-04-14T15:21:12.283Z,98588.59
2018-04-14T15:23:39.783Z,98593.73
2018-04-14T15:26:07.275Z,98593.94
2018-04-14T15:28:34.803Z,98588.27
2018-04-14T15:31:02.268Z,98593.61
2018-04-14T15:33:29.759Z,98579.39
2018-04-14T15:35:57.343Z,98574.72
2018-04-14T15:38:24.904Z,98572.18
2018-04-14T15:40:52.382Z,98574.87
2018-04-14T15:43:19.917Z,98575.02
2018-04-14T15:45:47.412Z,98575.66
2018-04-14T15:48:14.969Z,98572.57
2018-04-14T15:50:42.435Z,98566.20
2018-04-14T15:53:09.944Z,98562.70
2018-04-14T15:55:37.514Z,98554.69
2018-04-14T15:58:05.017Z,98554.84
2018-04-14T16:00:32.516Z,98554.42
2018-04-14T16:02:59.992Z,98550.41
2018-04-14T16:05:27.487Z,98545.44
2018-04-14T16:07:55.043Z,98546.38
2018-04-14T16:10:22.552Z,98539.97
2018-04-14T16:12:50.126Z,98533.44
2018-04-14T16:15:17.672Z,98533.40
2018-04-14T16:17:45.146Z,98534.77
2018-04-14T16:20:12.649Z,98530.91
2018-04-14T16:22:40.115Z,98536.75
2018-04-14T16:25:07.701Z,98537.73
2018-04-14T16:27:35.198Z,98532.03
2018-04-14T16:30:02.708Z,98541.80
2018-04-14T16:32:30.174Z,98540.02
2018-04-14T16:34:57.662Z,98540.28
2018-04-14T16:37:25.170Z,98536.72
2018-04-14T16:39:52.666Z,98532.39
2018-04-14T16:42:20.158Z,98533.09
2018-04-14T16:44:47.639Z,98531.70
2018-04-14T16:47:15.319Z,98538.19
2018-04-14T16:49:42.814Z,98534.70
2018-04-14T16:52:10.312Z,98533.73
2018-04-14T16:54:37.802Z,98529.30
2018-04-14T16:57:05.305Z,98532.40
2018-04-14T16:59:32.790Z,98528.67
2018-04-14T17:02:00.383Z,98524.81
2018-04-14T17:04:27.923Z,98524.80
2018-04-14T17:06:55.410Z,98531.91
2018-04-14T17:09:22.871Z,98534.78
2018-04-14T17:11:50.391Z,98530.59
2018-04-14T17:14:17.868Z,98536.22
2018-04-14T17:16:45.379Z,98538.25
2018-04-14T17:19:12.864Z,98531.89
2018-04-14T17:21:40.374Z,98537.52
2018-04-14T17:24:07.869Z,98535.23
2018-04-14T17:26:35.367Z,98539.13
2018-04-14T17:29:02.831Z,98542.03
2018-04-14T17:31:30.344Z,98534.75
2018-04-14T17:33:57.813Z,98534.77
2018-04-14T17:36:25.300Z,98537.44
2018-04-14T17:38:52.877Z,98531.62
2018-04-14T17:41:20.406Z,98534.22
2018-04-14T17:43:47.898Z,98543.79
2018-04-14T17:46:15.381Z,98546.27
2018-04-14T17:48:42.885Z,98541.89
2018-04-14T17:51:10.384Z,98534.47
2018-04-14T17:53:37.866Z,98533.56
2018-04-14T17:56:05.358Z,98538.03
2018-04-14T17:58:32.935Z,98544.98
2018-04-14T18:01:00.447Z,98550.77
2018-04-14T18:03:27.965Z,98549.38
2018-04-14T18:05:55.482Z,98554.34
2018-04-14T18:08:22.973Z,98553.87
2018-04-14T18:10:50.440Z,98561.52
2018-04-14T18:13:18.283Z,98567.95
2018-04-14T18:15:45.824Z,98562.84
2018-04-14T18:18:13.331Z,98566.16
2018-04-14T18:20:40.869Z,98573.63
2018-04-14T18:23:08.415Z,98566.53
2018-04-14T18:25:35.895Z,98568.39
2018-04-14T18:28:03.461Z,98567.42
2018-04-14T18:30:30.956Z,98563.33
2018-04-14T18:32:58.452Z,98560.61
2018-04-14T18:35:25.932Z,98559.97
2018-04-14T18:37:53.576Z,98558.28
2018-04-14T18:40:21.023Z,98563.35
2018-04-14T18:42:48.536Z,98561.67
2018-04-14T18:45:16.000Z,98564.80
2018-04-14T18:47:43.531Z,98561.67
2018-04-14T18:50:11.063Z,98562.61
2018-04-14T18:52:38.511Z,98565.20
2018-04-14T18:55:05.983Z,98567.84
2018-04-14T18:57:33.551Z,98562.34
2018-04-14T19:00:01.021Z,98571.69
2018-04-14T19:02:28.761Z,98581.47
2018-04-14T19:04:56.332Z,98579.86
2018-04-14T19:07:23.890Z,98581.30
2018-04-14T19:09:51.468Z,98584.66
2018-04-14T19:12:19.067Z,98584.58
2018-04-14T19:14:46.547Z,98585.17
2018-04-14T19:17:14.088Z,98582.09
2018-04-14T19:19:41.567Z,98584.34
2018-04-14T19:22:09.035Z,98580.85
2018-04-14T19:24:36.620Z,98577.65
2018-04-14T19:27:04.062Z,98574.57
2018-04-14T19:29:31.640Z,98584.28
2018-04-14T19:31:59.151Z,98588.45
2018-04-14T19:34:26.638Z,98592.44
2018-04-14T19:36:54.103Z,98588.00
2018-04-14T19:39:21.636Z,98580.59
2018-04-14T19:41:49.107Z,98579.61
2018-04-14T19:44:16.596Z,98579.31
2018-04-14T19:46:44.082Z,98577.18
2018-04-14T19:49:11.586Z,98578.46
2018-04-14T19:51:39.048Z,98584.25
2018-04-14T19:54:06.575Z,98589.56
2018-04-14T19:56:34.055Z,98588.25
2018-04-14T19:59:01.556Z,98583.02
2018-04-14T20:01:29.043Z,98579.25
2018-04-14T20:03:56.540Z,98575.99
2018-04-14T20:06:24.016Z,98568.52
2018-04-14T20:08:51.515Z,98567.21
2018-04-14T20:11:18.988Z,98568.09
2018-04-14T20:13:46.494Z,98562.95
2018-04-14T20:16:14.019Z,98558.48
2018-04-14T20:18:41.521Z,98552.34
2018-04-14T20:21:09.012Z,98549.00
2018-04-14T20:23:36.523Z,98553.52
2018-04-14T20:26:04.026Z,98553.22
2018-04-14T20:28:31.781Z,98548.50
2018-04-14T20:30:59.250Z,98549.31
2018-04-14T20:33:26.712Z,98546.08
2018-04-14T20:35:54.237Z,98544.36
2018-04-14T20:38:21.715Z,98541.38
2018-04-14T20:40:49.235Z,98543.89
2018-04-14T20:43:16.699Z,98546.91
2018-04-14T20:45:44.359Z,98547.60
2018-04-14T20:48:11.832Z,98549.41
2018-04-14T20:50:39.459Z,98553.16
2018-04-14T20:53:06.936Z,98546.79
2018-04-14T20:55:34.424Z,98554.27
2018-04-14T20:58:01.907Z,98551.30
2018-04-14T21:00:29.431Z,98547.25
2018-04-14T21:02:56.916Z,98550.51
2018-04-14T21:05:24.412Z,98552.27
2018-04-14T21:07:51.959Z,98553.70
2018-04-14T21:10:19.475Z,98561.37
2018-04-14T21:12:46.943Z,98562.58
2018-04-14T21:15:14.536Z,98565.69
2018-04-14T21:17:42.006Z,98565.12
2018-04-14T21:20:09.581Z,98573.20
2018-04-14T21:22:37.060Z,98578.41
2018-04-14T21:25:04.567Z,98580.68
2018-04-14T21:27:32.037Z,98584.02
2018-04-14T21:29:59.583Z,98577.97
2018-04-14T21:32:27.127Z,98575.75
2018-04-14T21:34:54.655Z,98578.77
2018-04-14T21:37:22.143Z,98582.53
2018-04-14T21:39:49.647Z,98588.18
2018-04-14T21:42:17.116Z,98582.77
2018-04-14T21:44:44.624Z,98583.00
2018-04-14T21:47:12.104Z,98580.20
2018-04-14T21:49:39.657Z,98575.57
2018-04-14T21:52:07.159Z,98579.19
2018-04-14T21:54:34.644Z,98575.64
2018-04-14T21:57:02.140Z,98578.38
2018-04-14T21:59:29.637Z,98573.83
2018-04-14T22:01:57.155Z,98566.02
2018-04-14T22:04:24.634Z,98557.77
2018-04-14T22:06:52.123Z,98558.91
2018-04-14T22:09:19.697Z,98552.72
2018-04-14T22:11:47.187Z,98554.30
2018-04-14T22:14:26.506Z,98567.02
2018-04-14T22:16:54.023Z,98562.77
2018-04-14T22:19:21.527Z,98566.98
2018-04-14T22:21:49.036Z,98562.72
2018-04-14T22:24:16.515Z,98556.95
2018-04-14T22:26:44.059Z,98557.27
2018-04-14T22:29:11.524Z,98555.20
2018-04-14T22:31:39.016Z,98555.38
2018-04-14T22:34:06.488Z,98555.83
2018-04-14T22:36:33.978Z,98550.28
2018-04-14T22:39:01.663Z,98555.05
2018-04-14T22:41:29.160Z,98548.37
2018-04-14T22:43:56.646Z,98543.30
2018-04-14T22:46:24.148Z,98548.77
2018-04-14T22:48:51.611Z,98539.26
2018-04-14T22:51:19.110Z,98542.45
2018-04-14T22:53:46.574Z,98543.38
2018-04-14T22:56:14.070Z,98540.30
2018-04-14T22:58:41.578Z,98546.63
2018-04-14T23:01:09.076Z,98550.73
2018-04-14T23:03:36.551Z,98548.75
2018-04-14T23:06:04.092Z,98553.39
2018-04-14T23:08:31.655Z,98550.38
2018-04-14T23:10:59.216Z,98558.87
2018-04-14T23:13:26.718Z,98562.34
2018-04-14T23:15:54.207Z,98560.28
2018-04-14T23:18:21.704Z,98556.44
2018-04-14T23:20:50.144Z,98557.36
2018-04-14T23:23:17.635Z,98563.60
2018-04-14T23:25:45.215Z,98558.45
2018-04-14T23:28:12.700Z,98562.22
2018-04-14T23:30:40.191Z,98562.16
2018-04-14T23:33:07.686Z,98561.65
2018-04-14T23:35:35.157Z,98562.38
2018-04-14T23:38:02.659Z,98570.75
2018-04-14T23:40:30.131Z,98569.98
2018-04-14T23:42:57.644Z,98574.78
2018-04-14T23:45:25.123Z,98572.70
2018-04-14T23:47:52.631Z,98571.69
2018-04-14T23:50:20.099Z,98563.16
2018-04-14T23:52:47.583Z,98560.22
2018-04-14T23:55:15.051Z,98557.12
2018-04-14T23:57:42.535Z,98553.56
